createdAt,value
2017-10-13T00:01:19.273Z,11.10
2017-10-13T00:03:46.938Z,11.10
2017-10-13T00:06:14.558Z,11.10
2017-10-13T00:08:42.210Z,11.10
2017-10-13T00:11:09.827Z,11.10
2017-10-13T00:13:37.451Z,11.10
2017-10-13T00:16:05.107Z,11.00
2017-10-13T00:18:32.725Z,11.00
2017-10-13T00:21:00.423Z,11.00
2017-10-13T00:23:28.817Z,11.00
2017-10-13T00:25:56.439Z,10.90
2017-10-13T00:28:24.842Z,11.10
2017-10-13T00:30:52.457Z,11.00
2017-10-13T00:33:20.105Z,11.10
2017-10-13T00:35:47.729Z,11.20
2017-10-13T00:38:16.166Z,11.30
2017-10-13T00:40:43.806Z,11.20
2017-10-13T00:43:11.427Z,11.30
2017-10-13T00:45:39.098Z,11.20
2017-10-13T00:48:06.740Z,11.30
2017-10-13T00:50:34.358Z,11.20
2017-10-13T00:53:02.006Z,11.20
2017-10-13T00:55:29.622Z,11.30
2017-10-13T00:57:58.052Z,11.30
2017-10-13T01:00:25.847Z,11.30
2017-10-13T01:02:54.344Z,11.50
2017-10-13T01:05:21.989Z,11.40
2017-10-13T01:07:49.606Z,11.50
2017-10-13T01:10:17.301Z,11.40
2017-10-13T01:12:44.918Z,11.40
2017-10-13T01:15:12.531Z,11.40
2017-10-13T01:17:40.930Z,11.50
2017-10-13T01:20:08.545Z,11.40
2017-10-13T01:22:36.964Z,11.40
2017-10-13T01:25:04.581Z,11.40
2017-10-13T01:27:32.206Z,11.30
2017-10-13T01:30:00.616Z,11.20
2017-10-13T01:32:28.233Z,11.20
2017-10-13T01:34:55.897Z,11.10
2017-10-13T01:37:23.514Z,11.00
2017-10-13T01:39:51.894Z,10.80
2017-10-13T01:42:19.538Z,10.80
2017-10-13T01:44:47.216Z,10.80
2017-10-13T01:47:14.884Z,10.70
2017-10-13T01:49:42.510Z,10.60
2017-10-13T01:52:10.131Z,10.60
2017-10-13T01:54:37.787Z,10.60
2017-10-13T01:57:05.408Z,10.60
2017-10-13T01:59:33.062Z,10.60
2017-10-13T02:02:00.684Z,10.70
2017-10-13T02:04:29.062Z,10.80
2017-10-13T02:06:57.471Z,10.90
2017-10-13T02:09:25.101Z,10.80
2017-10-13T02:11:52.849Z,10.90
2017-10-13T02:14:20.462Z,11.00
2017-10-13T02:16:48.862Z,11.10
2017-10-13T02:19:16.503Z,11.00
2017-10-13T02:21:44.124Z,11.00
2017-10-13T02:24:11.785Z,11.00
2017-10-13T02:26:39.695Z,11.00
2017-10-13T02:29:07.323Z,11.00
2017-10-13T02:31:34.972Z,11.10
2017-10-13T02:34:02.626Z,11.00
2017-10-13T02:36:30.287Z,11.00
2017-10-13T02:38:57.922Z,10.80
2017-10-13T02:41:25.987Z,10.80
2017-10-13T02:43:53.628Z,10.80
2017-10-13T02:46:21.253Z,10.80
2017-10-13T02:48:48.910Z,10.80
2017-10-13T02:51:16.532Z,10.80
2017-10-13T02:53:44.137Z,10.80
2017-10-13T02:56:12.549Z,10.70
2017-10-13T02:58:40.170Z,10.60
2017-10-13T03:01:07.832Z,10.70
2017-10-13T03:03:35.459Z,10.70
2017-10-13T03:06:03.173Z,10.60
2017-10-13T03:08:31.603Z,10.60
2017-10-13T03:10:59.219Z,10.60
2017-10-13T03:13:26.915Z,10.60
2017-10-13T03:15:54.531Z,10.60
2017-10-13T03:18:22.169Z,10.60
2017-10-13T03:20:49.831Z,10.60
2017-10-13T03:23:17.458Z,10.50
2017-10-13T03:25:45.120Z,10.50
2017-10-13T03:28:13.550Z,10.60
2017-10-13T03:30:41.940Z,10.60
2017-10-13T03:33:09.590Z,10.60
2017-10-13T03:35:37.258Z,10.80
2017-10-13T03:38:06.347Z,10.90
2017-10-13T03:40:33.954Z,10.90
2017-10-13T03:43:01.581Z,11.00
2017-10-13T03:45:29.218Z,11.10
2017-10-13T03:47:57.597Z,11.30
2017-10-13T03:50:25.313Z,11.20
2017-10-13T03:52:52.986Z,11.40
2017-10-13T03:55:21.372Z,11.40
2017-10-13T03:57:49.022Z,11.40
2017-10-13T04:00:16.633Z,11.50
2017-10-13T04:02:45.087Z,11.50
2017-10-13T04:05:12.703Z,11.50
2017-10-13T04:07:40.330Z,11.60
2017-10-13T04:10:07.986Z,11.60
2017-10-13T04:12:35.674Z,11.70
2017-10-13T04:15:03.334Z,11.70
2017-10-13T04:17:30.958Z,11.70
2017-10-13T04:19:58.594Z,11.60
2017-10-13T04:22:26.328Z,11.70
2017-10-13T04:24:53.959Z,11.70
2017-10-13T04:27:21.618Z,11.80
2017-10-13T04:29:49.236Z,11.80
2017-10-13T04:32:16.869Z,11.80
2017-10-13T04:34:44.589Z,11.80
2017-10-13T04:37:12.202Z,11.80
2017-10-13T04:39:39.869Z,11.90
2017-10-13T04:42:07.528Z,11.90
2017-10-13T04:44:35.190Z,11.90
2017-10-13T04:47:03.703Z,11.90
2017-10-13T04:49:31.319Z,11.80
2017-10-13T04:51:58.982Z,11.90
2017-10-13T04:54:26.710Z,11.90
2017-10-13T04:56:55.118Z,12.00
2017-10-13T04:59:22.911Z,11.90
2017-10-13T05:01:51.365Z,11.90
2017-10-13T05:04:19.027Z,11.90
2017-10-13T05:06:47.422Z,11.90
2017-10-13T05:09:15.123Z,11.90
2017-10-13T05:11:43.581Z,12.00
2017-10-13T05:14:11.212Z,12.00
2017-10-13T05:16:38.868Z,12.00
2017-10-13T05:19:06.502Z,12.00
2017-10-13T05:21:34.109Z,12.00
2017-10-13T05:24:01.755Z,12.10
2017-10-13T05:26:29.386Z,12.10
2017-10-13T05:28:57.922Z,12.20
2017-10-13T05:31:25.632Z,12.10
2017-10-13T05:33:53.267Z,12.10
2017-10-13T05:36:20.928Z,12.10
2017-10-13T05:38:48.558Z,12.10
2017-10-13T05:41:16.246Z,12.20
2017-10-13T05:43:43.867Z,12.20
2017-10-13T05:46:11.495Z,12.20
2017-10-13T05:48:39.158Z,12.20
2017-10-13T05:51:06.890Z,12.20
2017-10-13T05:53:34.558Z,12.20
2017-10-13T05:56:02.177Z,12.20
2017-10-13T05:58:29.808Z,12.30
2017-10-13T06:00:57.459Z,12.30
2017-10-13T06:03:25.886Z,12.30
2017-10-13T06:05:53.543Z,12.30
2017-10-13T06:08:21.163Z,12.30
2017-10-13T06:10:48.847Z,12.40
2017-10-13T06:13:16.506Z,12.40
2017-10-13T06:15:45.191Z,12.40
2017-10-13T06:18:12.895Z,12.40
2017-10-13T06:20:40.514Z,12.40
2017-10-13T06:23:08.139Z,12.50
2017-10-13T06:25:35.830Z,12.60
2017-10-13T06:28:03.437Z,12.60
2017-10-13T06:30:31.146Z,12.60
2017-10-13T06:32:58.776Z,12.60
2017-10-13T06:35:26.406Z,12.70
2017-10-13T06:37:54.051Z,12.70
2017-10-13T06:40:21.679Z,12.70
2017-10-13T06:42:49.346Z,12.80
2017-10-13T06:45:17.053Z,12.80
2017-10-13T06:47:45.431Z,12.90
2017-10-13T06:50:13.070Z,12.80
2017-10-13T06:52:40.686Z,13.00
2017-10-13T06:55:08.338Z,13.20
2017-10-13T06:57:36.750Z,13.30
2017-10-13T07:00:04.464Z,13.30
2017-10-13T07:02:32.097Z,13.40
2017-10-13T07:04:59.719Z,13.40
2017-10-13T07:07:27.370Z,13.50
2017-10-13T07:09:55.075Z,13.70
2017-10-13T07:12:22.762Z,13.70
2017-10-13T07:14:50.414Z,13.60
2017-10-13T07:17:18.033Z,13.80
2017-10-13T07:19:45.921Z,13.80
2017-10-13T07:22:13.557Z,13.80
2017-10-13T07:24:41.175Z,13.90
2017-10-13T07:27:08.835Z,13.90
2017-10-13T07:29:36.544Z,13.90
2017-10-13T07:32:04.196Z,13.90
2017-10-13T07:34:31.828Z,14.00
2017-10-13T07:37:00.219Z,14.10
2017-10-13T07:39:27.869Z,14.10
2017-10-13T07:41:55.495Z,14.20
2017-10-13T07:44:23.168Z,14.20
2017-10-13T07:46:50.786Z,14.30
2017-10-13T07:49:19.561Z,14.40
2017-10-13T07:51:47.259Z,14.60
2017-10-13T07:54:14.903Z,14.60
2017-10-13T07:56:42.560Z,14.60
2017-10-13T07:59:10.183Z,14.60
2017-10-13T08:01:37.803Z,14.60
2017-10-13T08:04:05.445Z,14.70
2017-10-13T08:06:33.074Z,14.70
2017-10-13T08:09:00.741Z,14.60
2017-10-13T08:11:28.380Z,14.80
2017-10-13T08:13:56.299Z,15.20
2017-10-13T08:16:24.723Z,15.50
2017-10-13T08:18:52.335Z,15.50
2017-10-13T08:21:19.996Z,15.50
2017-10-13T08:23:47.648Z,15.60
2017-10-13T08:26:15.352Z,15.40
2017-10-13T08:28:43.772Z,15.50
2017-10-13T08:31:11.387Z,15.50
2017-10-13T08:33:39.109Z,15.70
2017-10-13T08:36:07.014Z,15.80
2017-10-13T08:38:34.645Z,15.80
2017-10-13T08:41:02.310Z,15.80
2017-10-13T08:43:29.940Z,15.80
2017-10-13T08:45:57.608Z,16.00
2017-10-13T08:48:25.321Z,16.10
2017-10-13T08:50:52.953Z,16.20
2017-10-13T08:53:20.598Z,16.40
2017-10-13T08:55:48.992Z,16.50
2017-10-13T08:58:17.390Z,17.00
2017-10-13T09:00:45.009Z,17.00
2017-10-13T09:03:12.646Z,17.30
2017-10-13T09:05:41.056Z,17.70
2017-10-13T09:08:08.658Z,17.60
2017-10-13T09:10:36.372Z,18.10
2017-10-13T09:13:03.972Z,18.30
2017-10-13T09:15:31.584Z,18.70
2017-10-13T09:17:59.199Z,19.10
2017-10-13T09:20:26.930Z,19.10
2017-10-13T09:22:56.390Z,19.50
2017-10-13T09:25:23.994Z,20.20
2017-10-13T09:27:51.613Z,19.60
2017-10-13T09:30:19.254Z,19.30
2017-10-13T09:32:46.875Z,19.80
2017-10-13T09:35:14.513Z,20.00
2017-10-13T09:37:42.868Z,20.20
2017-10-13T09:40:10.459Z,20.10
2017-10-13T09:42:38.092Z,20.20
2017-10-13T09:45:05.806Z,20.30
2017-10-13T09:47:34.212Z,20.00
2017-10-13T09:50:01.813Z,20.00
2017-10-13T09:52:29.444Z,20.30
2017-10-13T09:54:57.071Z,20.90
2017-10-13T09:57:24.674Z,20.80
2017-10-13T09:59:52.303Z,20.40
2017-10-13T10:02:20.674Z,19.60
2017-10-13T10:04:49.039Z,18.80
2017-10-13T10:07:17.597Z,18.60
2017-10-13T10:09:46.011Z,18.00
2017-10-13T10:12:13.648Z,18.00
2017-10-13T10:14:41.246Z,17.70
2017-10-13T10:17:09.626Z,17.30
2017-10-13T10:19:38.049Z,17.30
2017-10-13T10:22:05.770Z,17.20
2017-10-13T10:24:33.398Z,17.60
2017-10-13T10:27:01.016Z,17.80
2017-10-13T10:29:28.634Z,17.70
2017-10-13T10:31:56.310Z,17.90
2017-10-13T10:34:24.674Z,18.30
2017-10-13T10:36:52.330Z,18.20
2017-10-13T10:39:20.690Z,18.20
2017-10-13T10:41:49.124Z,18.00
2017-10-13T10:44:16.770Z,17.90
2017-10-13T10:46:44.365Z,18.20
2017-10-13T10:49:12.015Z,18.30
2017-10-13T10:51:39.619Z,18.40
2017-10-13T10:54:07.211Z,18.30
2017-10-13T10:56:34.925Z,18.00
2017-10-13T10:59:03.298Z,17.90
2017-10-13T11:01:31.699Z,17.90
2017-10-13T11:03:59.307Z,17.80
2017-10-13T11:06:27.691Z,18.10
2017-10-13T11:08:55.375Z,18.00
2017-10-13T11:11:23.197Z,17.80
2017-10-13T11:13:50.854Z,17.70
2017-10-13T11:16:18.459Z,17.60
2017-10-13T11:18:46.910Z,17.80
2017-10-13T11:21:14.530Z,17.80
2017-10-13T11:23:42.164Z,17.90
2017-10-13T11:26:09.806Z,17.80
2017-10-13T11:28:37.403Z,17.60
2017-10-13T11:31:05.041Z,17.50
2017-10-13T11:33:32.725Z,17.40
2017-10-13T11:36:00.347Z,17.40
2017-10-13T11:38:28.747Z,17.20
2017-10-13T11:40:56.351Z,17.20
2017-10-13T11:43:23.989Z,17.30
2017-10-13T11:45:52.415Z,17.20
2017-10-13T11:48:20.039Z,17.10
2017-10-13T11:50:47.670Z,17.20
2017-10-13T11:53:16.206Z,17.20
2017-10-13T11:55:44.611Z,17.30
2017-10-13T11:58:12.234Z,17.30
2017-10-13T12:00:39.875Z,17.40
2017-10-13T12:03:07.538Z,17.30
2017-10-13T12:05:35.236Z,17.20
2017-10-13T12:08:03.653Z,17.00
2017-10-13T12:10:31.294Z,17.00
2017-10-13T12:12:58.909Z,17.00
2017-10-13T12:15:26.561Z,17.10
2017-10-13T12:17:54.963Z,17.20
2017-10-13T12:20:22.598Z,17.20
2017-10-13T12:22:50.258Z,17.00
2017-10-13T12:25:17.882Z,17.00
2017-10-13T12:27:45.563Z,17.00
2017-10-13T12:30:13.178Z,17.10
2017-10-13T12:32:41.542Z,17.30
2017-10-13T12:35:09.194Z,17.20
2017-10-13T12:37:36.822Z,17.20
2017-10-13T12:40:05.257Z,17.10
2017-10-13T12:42:32.954Z,17.00
2017-10-13T12:45:00.580Z,17.20
2017-10-13T12:47:28.992Z,17.20
2017-10-13T12:49:56.632Z,17.10
2017-10-13T12:52:24.288Z,17.10
2017-10-13T12:54:51.910Z,17.10
2017-10-13T12:57:19.558Z,17.20
2017-10-13T12:59:47.230Z,17.10
2017-10-13T13:02:14.830Z,17.20
2017-10-13T13:04:42.494Z,17.30
2017-10-13T13:07:10.875Z,17.00
2017-10-13T13:09:38.490Z,17.00
2017-10-13T13:12:06.178Z,16.90
2017-10-13T13:14:33.783Z,17.30
2017-10-13T13:17:01.423Z,18.10
2017-10-13T13:19:29.023Z,18.60
2017-10-13T13:21:56.726Z,19.00
2017-10-13T13:24:25.131Z,19.90
2017-10-13T13:26:52.774Z,19.80
2017-10-13T13:29:20.426Z,19.80
2017-10-13T13:31:48.473Z,19.50
2017-10-13T13:34:16.130Z,19.20
2017-10-13T13:36:43.755Z,19.50
2017-10-13T13:39:11.359Z,19.30
2017-10-13T13:41:38.988Z,18.80
2017-10-13T13:44:06.700Z,19.00
2017-10-13T13:46:34.693Z,19.20
2017-10-13T13:49:02.329Z,19.00
2017-10-13T13:51:29.955Z,18.70
2017-10-13T13:53:57.593Z,18.30
2017-10-13T13:56:25.262Z,18.10
2017-10-13T13:58:52.938Z,17.80
2017-10-13T14:01:20.601Z,17.70
2017-10-13T14:03:49.012Z,17.40
2017-10-13T14:06:16.647Z,17.40
2017-10-13T14:08:44.252Z,17.30
2017-10-13T14:11:12.641Z,17.20
2017-10-13T14:13:40.291Z,17.20
2017-10-13T14:16:07.906Z,17.20
2017-10-13T14:18:35.594Z,17.20
2017-10-13T14:21:03.198Z,17.10
2017-10-13T14:23:31.585Z,17.00
2017-10-13T14:25:59.243Z,16.90
2017-10-13T14:28:26.876Z,17.00
2017-10-13T14:30:54.530Z,17.00
2017-10-13T14:33:22.162Z,17.00
2017-10-13T14:35:49.783Z,17.10
2017-10-13T14:38:18.215Z,17.00
2017-10-13T14:40:45.910Z,17.00
2017-10-13T14:43:13.566Z,17.00
2017-10-13T14:45:41.205Z,17.00
2017-10-13T14:48:08.871Z,16.90
2017-10-13T14:50:36.514Z,16.80
2017-10-13T14:53:04.147Z,16.80
2017-10-13T14:55:31.810Z,16.70
2017-10-13T14:57:59.430Z,16.80
2017-10-13T15:00:27.829Z,16.80
2017-10-13T15:02:55.490Z,16.70
2017-10-13T15:05:23.111Z,16.90
2017-10-13T15:07:50.762Z,16.70
2017-10-13T15:10:18.905Z,16.60
2017-10-13T15:12:46.585Z,16.50
2017-10-13T15:15:14.225Z,16.40
2017-10-13T15:17:41.866Z,16.40
2017-10-13T15:20:09.512Z,16.30
2017-10-13T15:22:37.343Z,16.30
2017-10-13T15:28:17.465Z,16.10
2017-10-13T15:30:51.557Z,16.00
2017-10-13T15:33:24.932Z,16.00
2017-10-13T15:35:58.374Z,15.90
2017-10-13T15:38:31.662Z,15.80
2017-10-13T15:41:05.137Z,15.70
2017-10-13T15:43:39.061Z,15.50
2017-10-13T15:46:12.315Z,15.40
2017-10-13T15:48:39.942Z,15.40
2017-10-13T15:51:13.325Z,15.40
2017-10-13T15:53:40.945Z,15.30
2017-10-13T15:56:08.566Z,15.20
2017-10-13T15:58:36.270Z,15.10
2017-10-13T16:01:03.893Z,15.00
2017-10-13T16:03:31.548Z,15.00
2017-10-13T16:05:59.166Z,14.80
2017-10-13T16:08:27.555Z,14.60
2017-10-13T16:10:55.233Z,14.50
2017-10-13T16:13:22.959Z,14.50
2017-10-13T16:15:50.623Z,14.30
2017-10-13T16:18:18.252Z,14.20
2017-10-13T16:20:46.123Z,14.20
2017-10-13T16:23:13.783Z,14.20
2017-10-13T16:25:41.408Z,14.10
2017-10-13T16:28:09.062Z,14.10
2017-10-13T16:30:36.716Z,14.00
2017-10-13T16:33:04.348Z,14.00
2017-10-13T16:35:31.989Z,13.90
2017-10-13T16:37:59.602Z,13.80
2017-10-13T16:40:28.029Z,13.50
2017-10-13T16:42:55.775Z,13.50
2017-10-13T16:45:23.407Z,13.50
2017-10-13T16:47:51.063Z,13.40
2017-10-13T16:50:18.687Z,13.40
2017-10-13T16:52:46.354Z,13.40
2017-10-13T16:55:13.967Z,13.30
2017-10-13T16:57:41.597Z,13.20
2017-10-13T17:00:09.870Z,13.20
2017-10-13T17:02:37.489Z,13.10
2017-10-13T17:05:06.101Z,13.10
2017-10-13T17:07:33.727Z,13.10
2017-10-13T17:10:01.362Z,13.20
2017-10-13T17:12:29.767Z,13.30
2017-10-13T17:14:57.405Z,13.30
2017-10-13T17:17:25.121Z,13.20
2017-10-13T17:19:52.778Z,13.10
2017-10-13T17:22:20.471Z,13.00
2017-10-13T17:24:48.135Z,13.00
2017-10-13T17:27:15.790Z,12.80
2017-10-13T17:29:43.454Z,12.70
2017-10-13T17:32:15.232Z,12.60
2017-10-13T17:34:43.100Z,12.50
2017-10-13T17:37:10.719Z,12.60
2017-10-13T17:39:38.351Z,12.70
2017-10-13T17:42:06.187Z,12.60
2017-10-13T17:44:35.392Z,12.40
2017-10-13T17:47:03.042Z,12.30
2017-10-13T17:49:30.687Z,12.20
2017-10-13T17:51:58.318Z,12.10
2017-10-13T17:54:26.877Z,12.00
2017-10-13T17:56:55.372Z,12.00
2017-10-13T17:59:23.030Z,11.90
2017-10-13T18:01:50.653Z,11.80
2017-10-13T18:04:18.373Z,11.90
2017-10-13T18:06:46.242Z,11.90
2017-10-13T18:09:13.890Z,11.80
2017-10-13T18:11:41.568Z,11.80
2017-10-13T18:14:09.185Z,11.70
2017-10-13T18:16:36.989Z,11.70
2017-10-13T18:19:04.868Z,11.50
2017-10-13T18:21:32.558Z,11.50
2017-10-13T18:24:00.721Z,11.50
2017-10-13T18:26:28.505Z,11.40
2017-10-13T18:28:56.774Z,11.40
2017-10-13T18:31:24.415Z,11.40
2017-10-13T18:33:53.003Z,11.30
2017-10-13T18:36:20.999Z,11.40
2017-10-13T18:38:48.698Z,11.40
2017-10-13T18:41:20.260Z,11.60
2017-10-13T18:43:48.655Z,11.50
2017-10-13T18:46:16.319Z,11.50
2017-10-13T18:48:44.027Z,11.50
2017-10-13T18:51:11.653Z,11.40
2017-10-13T18:53:40.089Z,11.40
2017-10-13T18:56:09.008Z,11.30
2017-10-13T18:58:37.406Z,11.40
2017-10-13T19:01:05.065Z,11.30
2017-10-13T19:03:32.731Z,11.30
2017-10-13T19:06:00.444Z,11.40
2017-10-13T19:08:28.071Z,11.40
2017-10-13T19:10:55.819Z,11.40
2017-10-13T19:13:23.617Z,11.40
2017-10-13T19:15:53.846Z,11.40
2017-10-13T19:18:22.625Z,11.40
2017-10-13T19:20:50.283Z,11.40
2017-10-13T19:23:18.695Z,11.40
2017-10-13T19:25:46.341Z,11.30
2017-10-13T19:28:13.967Z,11.40
2017-10-13T19:30:41.620Z,11.50
2017-10-13T19:33:09.261Z,11.60
2017-10-13T19:35:36.970Z,11.50
2017-10-13T19:38:05.394Z,11.60
2017-10-13T19:40:33.018Z,11.60
2017-10-13T19:43:00.699Z,11.50
2017-10-13T19:45:28.336Z,11.60
2017-10-13T19:47:56.319Z,11.50
2017-10-13T19:50:23.986Z,11.40
2017-10-13T19:52:52.512Z,11.40
2017-10-13T19:55:20.993Z,11.40
2017-10-13T19:57:48.761Z,11.30
2017-10-13T20:00:16.406Z,11.40
2017-10-13T20:02:44.055Z,11.40
2017-10-13T20:05:11.684Z,11.40
2017-10-13T20:07:39.358Z,11.50
2017-10-13T20:10:07.804Z,11.50
2017-10-13T20:12:36.397Z,11.50
2017-10-13T20:15:04.053Z,11.40
2017-10-13T20:17:31.816Z,11.50
2017-10-13T20:19:59.563Z,11.40
2017-10-13T20:22:27.328Z,11.40
2017-10-13T20:24:55.011Z,11.30
2017-10-13T20:27:22.719Z,11.40
2017-10-13T20:29:50.358Z,11.40
2017-10-13T20:32:18.038Z,11.30
2017-10-13T20:34:45.859Z,11.30
2017-10-13T20:37:13.487Z,11.20
2017-10-13T20:39:41.138Z,11.20
2017-10-13T20:42:08.866Z,11.20
2017-10-13T20:44:37.344Z,11.10
2017-10-13T20:47:04.974Z,11.10
2017-10-13T20:49:32.652Z,11.10
2017-10-13T20:52:00.301Z,11.20
2017-10-13T20:54:27.948Z,11.10
2017-10-13T20:56:55.824Z,11.00
2017-10-13T20:59:23.451Z,11.00
2017-10-13T21:01:51.115Z,10.90
2017-10-13T21:04:18.767Z,10.80
2017-10-13T21:06:46.848Z,10.80
2017-10-13T21:09:14.518Z,10.70
2017-10-13T21:11:42.153Z,10.70
2017-10-13T21:14:10.576Z,10.70
2017-10-13T21:16:38.222Z,10.60
2017-10-13T21:19:05.888Z,10.60
2017-10-13T21:21:33.628Z,10.60
2017-10-13T21:24:01.299Z,10.60
2017-10-13T21:26:28.922Z,10.60
2017-10-13T21:28:56.687Z,10.60
2017-10-13T21:31:24.318Z,10.60
2017-10-13T21:33:51.984Z,10.60
2017-10-13T21:36:19.620Z,10.50
2017-10-13T21:38:57.287Z,10.50
2017-10-13T21:41:26.381Z,10.50
2017-10-13T21:43:54.011Z,10.60
2017-10-13T21:46:21.670Z,10.60
2017-10-13T21:48:49.295Z,10.50
2017-10-13T21:51:17.026Z,10.60
2017-10-13T21:53:44.655Z,10.70
2017-10-13T21:56:12.279Z,10.70
2017-10-13T21:58:40.709Z,10.80
2017-10-13T22:01:08.334Z,10.70
2017-10-13T22:03:36.208Z,10.80
2017-10-13T22:06:03.858Z,10.90
2017-10-13T22:08:31.487Z,10.90
2017-10-13T22:10:59.162Z,10.90
2017-10-13T22:13:26.904Z,11.00
2017-10-13T22:15:54.587Z,11.00
2017-10-13T22:18:22.995Z,11.10
2017-10-13T22:20:50.609Z,11.10
2017-10-13T22:23:18.265Z,11.10
2017-10-13T22:25:45.998Z,11.20
2017-10-13T22:28:13.951Z,11.30
2017-10-13T22:30:42.348Z,11.50
2017-10-13T22:33:09.979Z,11.40
2017-10-13T22:35:37.638Z,11.50
2017-10-13T22:38:05.435Z,11.50
2017-10-13T22:40:33.094Z,11.60
2017-10-13T22:43:01.499Z,11.70
2017-10-13T22:45:29.129Z,11.60
2017-10-13T22:47:56.898Z,11.70
2017-10-13T22:50:24.526Z,11.80
2017-10-13T22:52:52.182Z,11.80
2017-10-13T22:55:19.808Z,11.80
2017-10-13T22:57:48.212Z,11.80
2017-10-13T23:00:15.890Z,11.80
2017-10-13T23:02:43.530Z,11.90
2017-10-13T23:05:11.196Z,11.90
2017-10-13T23:07:39.591Z,12.00
2017-10-13T23:10:07.285Z,11.90
2017-10-13T23:12:34.944Z,12.10
2017-10-13T23:15:02.570Z,12.30
2017-10-13T23:17:30.249Z,12.40
2017-10-13T23:19:57.870Z,12.50
2017-10-13T23:22:25.492Z,12.60
2017-10-13T23:24:53.147Z,12.70
2017-10-13T23:27:20.775Z,12.80
2017-10-13T23:29:48.444Z,12.90
2017-10-13T23:32:16.214Z,12.90
2017-10-13T23:34:43.842Z,13.00
2017-10-13T23:37:11.500Z,13.00
2017-10-13T23:39:39.141Z,13.10
2017-10-13T23:42:06.931Z,13.10
2017-10-13T23:44:35.404Z,13.10
2017-10-13T23:47:03.049Z,13.00
2017-10-13T23:49:30.708Z,13.20
2017-10-13T23:51:58.338Z,13.30
2017-10-13T23:54:26.932Z,13.30
2017-10-13T23:56:54.557Z,13.30
2017-10-13T23:59:22.184Z,13.40
